Time;durP1;ratioP1;P1;durP2;ratioP2;P2;SDS_P1;SDS_P2;PMS_P1;PMS_P2;Temp;Humidity;BMP_temperature;BMP_pressure;BME280_temperature;BME280_humidity;BME280_pressure;Samples;Min_cycle;Max_cycle;Signal;HPM_P1;HPM_P2
2021/06/29 00:01:10;;;;;;;16.07;9.95;;;;;;;23.43;95.68;101342.34;1682110;85;21040;-84
2021/06/29 00:03:37;;;;;;;15.98;10.10;;;;;;;23.43;96.87;101338.36;1682391;84;21933;-80
2021/06/29 00:06:04;;;;;;;12.25;10.03;;;;;;;23.41;97.42;101330.26;1682460;85;20997;-83
2021/06/29 00:08:31;;;;;;;15.98;9.83;;;;;;;23.38;97.81;101331.40;1682529;85;21029;-82
2021/06/29 00:10:57;;;;;;;13.20;9.93;;;;;;;23.36;98.12;101326.75;1682445;85;20921;-84
2021/06/29 00:13:24;;;;;;;13.98;9.60;;;;;;;23.37;98.25;101334.20;1682067;85;21000;-82
2021/06/29 00:15:50;;;;;;;17.07;9.95;;;;;;;23.38;97.74;101345.97;1676545;85;21547;-84
2021/06/29 00:18:17;;;;;;;14.07;9.88;;;;;;;23.38;97.75;101344.64;1676574;85;21009;-88
2021/06/29 00:20:43;;;;;;;16.60;9.90;;;;;;;23.36;97.55;101345.78;1676599;85;21100;-81
2021/06/29 00:23:10;;;;;;;9.88;8.50;;;;;;;23.31;97.69;101341.50;1676979;85;21027;-83
2021/06/29 00:25:37;;;;;;;12.78;10.03;;;;;;;23.28;97.81;101347.95;1676805;85;20965;-79
2021/06/29 00:28:04;;;;;;;11.00;8.80;;;;;;;23.29;97.83;101342.17;1676758;85;21809;-81
2021/06/29 00:30:31;;;;;;;10.63;8.63;;;;;;;23.30;97.82;101339.34;1676640;85;20933;-81
2021/06/29 00:32:57;;;;;;;14.18;9.10;;;;;;;23.29;97.78;101337.70;1676595;85;21571;-84
2021/06/29 00:35:24;;;;;;;12.18;8.40;;;;;;;23.27;97.58;101334.38;1677140;85;20989;-80
2021/06/29 00:37:50;;;;;;;17.60;9.28;;;;;;;23.27;97.43;101336.20;1676729;85;20946;-81
2021/06/29 00:40:17;;;;;;;14.33;9.73;;;;;;;23.26;97.53;101333.23;1676750;85;21152;-82
2021/06/29 00:42:43;;;;;;;16.80;9.65;;;;;;;23.20;97.89;101328.09;1676645;85;21043;-80
2021/06/29 00:45:12;;;;;;;18.12;8.88;;;;;;;23.15;98.15;101326.45;1676614;85;20898;-82
2021/06/29 00:47:38;;;;;;;16.02;9.33;;;;;;;23.13;98.32;101325.80;1676589;85;21472;-81
2021/06/29 00:50:07;;;;;;;10.23;9.23;;;;;;;23.10;98.58;101323.48;1676885;85;21108;-87
2021/06/29 00:52:33;;;;;;;16.90;9.23;;;;;;;23.05;98.73;101326.62;1676870;85;21131;-81
2021/06/29 00:55:00;;;;;;;11.15;9.20;;;;;;;23.02;98.80;101331.41;1676986;85;20906;-79
2021/06/29 00:57:27;;;;;;;16.60;8.80;;;;;;;22.98;98.81;101337.53;1677450;85;20969;-81
2021/06/29 00:59:54;;;;;;;9.23;8.20;;;;;;;22.96;98.82;101336.05;1676754;85;21010;-83
2021/06/29 01:02:21;;;;;;;11.30;8.78;;;;;;;22.93;98.91;101337.21;1676934;85;20969;-86
2021/06/29 01:04:48;;;;;;;10.00;8.48;;;;;;;22.88;99.23;101323.62;1677043;85;21782;-80
2021/06/29 01:07:15;;;;;;;9.13;7.97;;;;;;;22.84;99.30;101328.94;1676559;85;20949;-81
2021/06/29 01:09:43;;;;;;;11.70;8.33;;;;;;;22.79;99.52;101329.91;1676738;85;21035;-84
2021/06/29 01:12:10;;;;;;;11.15;8.73;;;;;;;22.74;99.87;101329.59;1676617;85;21056;-87
2021/06/29 01:14:37;;;;;;;11.85;8.55;;;;;;;22.71;100.00;101326.44;1676534;85;21020;-81
2021/06/29 01:17:05;;;;;;;11.93;8.33;;;;;;;22.67;100.00;101327.25;1676960;85;21504;-80
2021/06/29 01:19:39;;;;;;;12.18;8.50;;;;;;;22.63;100.00;101320.11;1676921;85;21519;-81
2021/06/29 01:22:03;;;;;;;9.58;7.92;;;;;;;22.58;100.00;101319.78;1676965;85;20997;-82
2021/06/29 01:24:31;;;;;;;13.08;7.72;;;;;;;22.54;100.00;101314.96;1676825;85;21064;-83
2021/06/29 01:29:44;;;;;;;20.50;8.80;;;;;;;22.53;100.00;101322.55;1676854;85;21211;-81
2021/06/29 01:32:04;;;;;;;11.88;8.25;;;;;;;22.50;100.00;101322.88;1675446;85;20992;-81
2021/06/29 01:34:30;;;;;;;8.68;7.15;;;;;;;22.48;100.00;101321.73;1676990;85;21059;-83
2021/06/29 01:36:57;;;;;;;10.13;8.28;;;;;;;22.47;100.00;101326.69;1676965;85;21069;-82
2021/06/29 01:39:23;;;;;;;10.93;8.20;;;;;;;22.47;100.00;101322.72;1676978;85;21101;-84
2021/06/29 01:41:50;;;;;;;16.32;8.35;;;;;;;22.47;100.00;101328.50;1676875;85;21520;-83
2021/06/29 01:44:26;;;;;;;12.10;7.85;;;;;;;22.44;100.00;101328.82;1676847;85;20949;-82
2021/06/29 01:46:50;;;;;;;11.68;7.80;;;;;;;22.42;100.00;101328.17;1676409;85;20914;-83
2021/06/29 01:49:26;;;;;;;13.25;7.72;;;;;;;22.43;100.00;101330.63;1677003;85;21005;-81
2021/06/29 01:51:54;;;;;;;8.73;7.65;;;;;;;22.43;100.00;101322.70;1676777;85;20989;-81
2021/06/29 01:54:21;;;;;;;9.88;8.25;;;;;;;22.44;100.00;101317.75;1676711;85;21144;-83
2021/06/29 01:56:49;;;;;;;7.92;6.92;;;;;;;22.45;100.00;101320.74;1677195;85;21520;-83
2021/06/29 01:59:19;;;;;;;10.18;7.65;;;;;;;22.44;100.00;101312.46;1676999;85;21572;-82
2021/06/29 02:01:46;;;;;;;10.20;7.60;;;;;;;22.42;100.00;101306.52;1677048;85;21017;-82
2021/06/29 02:04:12;;;;;;;10.30;7.05;;;;;;;22.42;100.00;101301.72;1677113;85;21096;-81
2021/06/29 02:06:41;;;;;;;9.15;7.30;;;;;;;22.41;100.00;101296.92;1677018;85;21159;-86
2021/06/29 02:09:11;;;;;;;8.60;7.65;;;;;;;22.41;100.00;101291.63;1677368;85;20862;-84
2021/06/29 02:11:39;;;;;;;9.50;7.95;;;;;;;22.39;100.00;101290.14;1677546;85;20965;-87
2021/06/29 02:14:06;;;;;;;10.18;7.15;;;;;;;22.36;100.00;101295.27;1677750;84;21009;-83
2021/06/29 02:16:32;;;;;;;11.03;8.00;;;;;;;22.34;100.00;101297.23;1692456;84;21590;-82
2021/06/29 02:18:59;;;;;;;8.98;7.92;;;;;;;22.32;100.00;101299.22;1692120;84;21152;-83
2021/06/29 02:21:26;;;;;;;9.48;7.60;;;;;;;22.30;100.00;101301.20;1691995;84;20968;-81
2021/06/29 02:23:53;;;;;;;11.85;8.75;;;;;;;22.28;100.00;101311.09;1692173;84;21075;-81
2021/06/29 02:26:20;;;;;;;9.48;7.58;;;;;;;22.23;100.00;101314.73;1692139;84;20909;-83
2021/06/29 02:28:47;;;;;;;8.30;7.53;;;;;;;22.17;100.00;101312.73;1692298;84;20996;-83
2021/06/29 02:31:13;;;;;;;9.93;8.05;;;;;;;22.17;100.00;101309.25;1692019;84;21945;-80
2021/06/29 02:33:40;;;;;;;10.43;7.47;;;;;;;22.15;100.00;101306.27;1692252;84;20905;-80
2021/06/29 02:36:08;;;;;;;8.80;7.87;;;;;;;22.15;100.00;101305.44;1682787;84;20965;-82
2021/06/29 02:38:36;;;;;;;11.00;7.90;;;;;;;22.11;100.00;101308.09;1682241;85;21017;-83
2021/06/29 02:41:04;;;;;;;11.03;7.80;;;;;;;22.10;100.00;101311.71;1682497;85;21074;-81
2021/06/29 02:43:31;;;;;;;14.20;7.33;;;;;;;22.11;100.00;101312.86;1682602;85;21161;-80
2021/06/29 02:45:58;;;;;;;11.08;8.38;;;;;;;22.10;100.00;101310.39;1682545;85;20977;-80
2021/06/29 02:48:24;;;;;;;12.50;8.00;;;;;;;22.09;100.00;101307.41;1682508;84;21528;-84
2021/06/29 02:50:51;;;;;;;9.65;8.30;;;;;;;22.05;100.00;101302.92;1682623;84;20976;-85
2021/06/29 02:53:19;;;;;;;14.13;12.73;;;;;;;22.03;100.00;101300.95;1682683;84;21540;-84
2021/06/29 02:55:46;;;;;;;10.48;8.53;;;;;;;22.02;100.00;101305.89;1682384;85;21072;-84
2021/06/29 02:58:13;;;;;;;12.78;7.92;;;;;;;22.02;100.00;101303.25;1682181;85;21052;-86
2021/06/29 03:00:40;;;;;;;10.58;7.80;;;;;;;22.02;100.00;101302.41;1682047;85;20921;-87
2021/06/29 03:03:06;;;;;;;8.73;7.83;;;;;;;22.02;100.00;101297.13;1682163;85;21007;-87
2021/06/29 03:05:33;;;;;;;14.55;8.58;;;;;;;22.01;100.00;101296.33;1682350;85;21108;-84
2021/06/29 03:08:02;;;;;;;13.10;7.95;;;;;;;22.01;100.00;101291.53;1682413;85;21211;-81
2021/06/29 03:10:29;;;;;;;11.38;7.62;;;;;;;22.02;100.00;101286.55;1682428;85;21005;-85
2021/06/29 03:12:55;;;;;;;8.83;7.35;;;;;;;22.01;100.00;101296.33;1682427;84;21159;-85
2021/06/29 03:15:22;;;;;;;8.95;7.00;;;;;;;22.03;100.00;101297.47;1679858;84;20934;-85
2021/06/29 03:17:50;;;;;;;8.30;7.15;;;;;;;22.04;100.00;101295.17;1676677;85;21032;-85
2021/06/29 03:20:17;;;;;;;8.95;7.22;;;;;;;22.07;100.00;101302.78;1676990;85;21160;-85
2021/06/29 03:22:46;;;;;;;8.63;7.30;;;;;;;22.12;100.00;101301.80;1676844;85;20996;-85
2021/06/29 03:25:14;;;;;;;21.00;15.68;;;;;;;22.16;100.00;101299.17;1676747;85;21087;-87
2021/06/29 03:27:41;;;;;;;9.35;8.35;;;;;;;22.22;100.00;101304.30;1676521;85;21147;-85
2021/06/29 03:30:09;;;;;;;12.65;7.85;;;;;;;22.24;100.00;101304.47;1676587;85;20902;-85
2021/06/29 03:32:36;;;;;;;9.33;7.90;;;;;;;22.28;100.00;101303.66;1677033;85;21825;-84
2021/06/29 03:35:07;;;;;;;8.80;8.00;;;;;;;22.35;100.00;101307.31;1676569;85;21056;-85
2021/06/29 03:37:32;;;;;;;8.35;7.50;;;;;;;22.42;100.00;101314.45;1676549;85;21050;-83
2021/06/29 03:39:59;;;;;;;8.75;7.67;;;;;;;22.49;100.00;101312.83;1676819;85;21057;-85
2021/06/29 03:42:25;;;;;;;10.85;7.45;;;;;;;22.55;99.43;101307.37;1676645;85;21116;-83
2021/06/29 03:44:52;;;;;;;10.58;7.90;;;;;;;22.61;99.30;101308.87;1676532;85;21910;-84
2021/06/29 03:47:18;;;;;;;8.88;7.55;;;;;;;22.66;98.78;101314.52;1676796;85;20897;-84
2021/06/29 03:49:45;;;;;;;8.43;7.58;;;;;;;22.71;97.94;101308.75;1676646;85;20929;-84
2021/06/29 03:52:12;;;;;;;9.35;7.83;;;;;;;22.76;97.38;101305.09;1676840;85;21029;-85
2021/06/29 03:54:38;;;;;;;9.70;7.85;;;;;;;22.81;97.78;101312.06;1676849;85;21029;-84
2021/06/29 03:57:05;;;;;;;9.05;7.45;;;;;;;22.83;97.16;101311.88;1676621;85;21193;-84
2021/06/29 03:59:32;;;;;;;10.18;7.50;;;;;;;22.85;96.59;101310.72;1676700;85;21579;-86
2021/06/29 04:01:58;;;;;;;8.75;7.45;;;;;;;22.90;95.95;101310.23;1676653;85;20985;-86
2021/06/29 04:04:26;;;;;;;11.05;7.55;;;;;;;22.95;94.99;101303.94;1676620;85;21086;-86
2021/06/29 04:06:53;;;;;;;12.93;8.25;;;;;;;23.01;94.29;101296.66;1676799;85;21040;-86
2021/06/29 04:09:20;;;;;;;12.10;8.45;;;;;;;23.06;94.14;101304.95;1676804;85;21833;-86
2021/06/29 04:11:48;;;;;;;8.85;7.80;;;;;;;23.12;93.99;101305.11;1676597;85;20999;-84
2021/06/29 04:14:14;;;;;;;10.98;7.42;;;;;;;23.16;93.76;101303.79;1676731;85;21001;-85
2021/06/29 04:16:41;;;;;;;12.43;7.53;;;;;;;23.20;93.42;101304.25;1689507;84;21074;-85
2021/06/29 04:19:07;;;;;;;8.23;6.85;;;;;;;23.25;92.99;101303.77;1691960;84;21491;-85
2021/06/29 04:21:34;;;;;;;8.43;6.90;;;;;;;23.29;92.34;101306.42;1692135;84;21104;-86
2021/06/29 04:24:05;;;;;;;10.48;6.90;;;;;;;23.34;91.67;101304.08;1691864;84;20961;-82
2021/06/29 04:26:29;;;;;;;7.75;6.47;;;;;;;23.41;91.17;101313.05;1691723;84;21440;-81
2021/06/29 04:28:56;;;;;;;6.35;5.72;;;;;;;23.46;89.17;101306.23;1692532;84;20945;-84
2021/06/29 04:31:22;;;;;;;9.08;5.78;;;;;;;23.53;86.49;101308.55;1682712;84;21079;-83
2021/06/29 04:33:49;;;;;;;7.10;5.97;;;;;;;23.59;86.05;101304.38;1682705;84;21161;-85
2021/06/29 04:36:16;;;;;;;6.15;5.55;;;;;;;23.62;85.45;101307.52;1682538;85;21557;-84
2021/06/29 04:38:42;;;;;;;6.35;5.75;;;;;;;23.65;84.91;101303.20;1682445;85;21629;-86
2021/06/29 04:41:09;;;;;;;8.05;5.33;;;;;;;23.69;83.56;101304.53;1682469;85;21021;-87
2021/06/29 04:43:42;;;;;;;8.03;6.03;;;;;;;23.73;83.13;101298.88;1683384;85;21072;-86
2021/06/29 04:46:07;;;;;;;10.55;5.97;;;;;;;23.77;82.77;101295.73;1682563;85;21229;-85
2021/06/29 04:48:36;;;;;;;6.25;5.65;;;;;;;23.80;82.66;101296.72;1682761;84;21016;-85
2021/06/29 04:51:02;;;;;;;7.17;6.37;;;;;;;23.81;82.40;101292.21;1682618;85;21567;-85
2021/06/29 04:53:29;;;;;;;8.30;5.78;;;;;;;23.84;82.57;101293.19;1682389;85;21008;-86
2021/06/29 04:55:56;;;;;;;6.62;5.58;;;;;;;23.87;82.68;101300.83;1682307;85;21049;-84
2021/06/29 04:58:22;;;;;;;8.43;5.90;;;;;;;23.90;82.81;101301.81;1682727;85;21162;-85
2021/06/29 05:00:49;;;;;;;7.10;6.40;;;;;;;23.94;82.98;101301.28;1682657;85;21425;-84
2021/06/29 05:03:17;;;;;;;11.35;6.53;;;;;;;23.98;83.15;101299.94;1682690;85;21073;-85
2021/06/29 05:05:45;;;;;;;8.53;6.65;;;;;;;24.02;83.00;101300.42;1682675;85;20984;-85
2021/06/29 05:08:12;;;;;;;8.53;6.42;;;;;;;24.06;82.80;101300.41;1682499;85;21024;-84
2021/06/29 05:10:39;;;;;;;10.05;5.67;;;;;;;24.10;82.66;101299.05;1682484;84;21152;-86
2021/06/29 05:13:06;;;;;;;8.08;5.70;;;;;;;24.14;81.64;101310.50;1682285;84;20992;-86
2021/06/29 05:15:32;;;;;;;6.90;5.67;;;;;;;24.18;81.91;101303.86;1681052;84;21021;-83
2021/06/29 05:17:59;;;;;;;9.65;5.97;;;;;;;24.22;82.04;101306.97;1676863;85;20969;-85
2021/06/29 05:20:25;;;;;;;12.37;6.70;;;;;;;24.27;81.92;101311.77;1676713;85;21697;-86
2021/06/29 05:22:52;;;;;;;7.80;6.05;;;;;;;24.30;81.82;101310.09;1676462;84;21164;-85
2021/06/29 05:25:22;;;;;;;8.75;6.65;;;;;;;24.34;81.20;101302.94;1676608;85;21601;-85
2021/06/29 05:27:51;;;;;;;15.45;6.37;;;;;;;24.39;80.46;101301.91;1676784;85;21020;-83
2021/06/29 05:30:26;;;;;;;9.53;5.97;;;;;;;24.43;80.24;101305.03;1677029;85;21029;-91
2021/06/29 05:32:56;;;;;;;11.12;7.10;;;;;;;24.48;80.23;101306.65;1658667;85;21105;-84
2021/06/29 05:35:27;;;;;;;7.93;5.90;;;;;;;24.54;78.98;101308.59;1676805;85;20953;-85
2021/06/29 05:37:53;;;;;;;9.33;6.00;;;;;;;24.58;78.93;101301.45;1676775;85;21099;-83
2021/06/29 05:40:20;;;;;;;9.93;6.10;;;;;;;24.64;78.82;101304.72;1676839;85;21041;-83
2021/06/29 05:42:46;;;;;;;10.00;6.30;;;;;;;24.68;78.36;101303.86;1677117;85;20973;-85
2021/06/29 05:45:14;;;;;;;7.87;5.72;;;;;;;24.71;77.72;101302.19;1675740;84;21170;-84
2021/06/29 05:47:42;;;;;;;10.13;5.70;;;;;;;24.74;77.37;101303.98;1675898;84;21406;-82
2021/06/29 05:50:10;;;;;;;9.98;6.00;;;;;;;24.77;77.35;101304.13;1676407;84;20949;-81
2021/06/29 05:52:37;;;;;;;14.40;5.80;;;;;;;24.82;76.32;101303.64;1676662;84;20953;-81
2021/06/29 05:55:06;;;;;;;9.55;6.50;;;;;;;24.87;75.93;101299.93;1676543;84;20989;-83
2021/06/29 05:57:33;;;;;;;7.95;5.70;;;;;;;24.92;75.68;101308.20;1676459;85;21107;-80
2021/06/29 05:59:59;;;;;;;8.85;6.35;;;;;;;24.99;75.21;101305.97;1676790;84;21907;-83
2021/06/29 06:02:26;;;;;;;11.83;6.55;;;;;;;25.02;75.42;101298.97;1676849;84;21008;-82
2021/06/29 06:04:55;;;;;;;12.50;6.10;;;;;;;25.06;75.17;101300.27;1651302;85;21038;-83
2021/06/29 06:07:23;;;;;;;11.78;6.17;;;;;;;25.10;75.05;101302.06;1665532;84;21414;-82
2021/06/29 06:09:50;;;;;;;11.30;6.17;;;;;;;25.14;74.55;101298.84;1669565;84;21042;-82
2021/06/29 06:12:17;;;;;;;15.15;6.95;;;;;;;25.19;74.46;101299.65;1677288;84;21104;-85
2021/06/29 06:14:44;;;;;;;8.83;6.25;;;;;;;25.25;74.55;101302.41;1675408;85;20979;-81
2021/06/29 06:17:10;;;;;;;28.77;7.97;;;;;;;25.33;74.08;101306.00;1637018;86;21134;-85
2021/06/29 06:19:38;;;;;;;13.83;7.35;;;;;;;25.37;74.15;101302.78;1687692;84;20988;-84
2021/06/29 06:22:04;;;;;;;21.05;7.03;;;;;;;25.42;74.00;101304.41;1691478;84;21099;-84
2021/06/29 06:24:33;;;;;;;16.85;7.87;;;;;;;25.47;74.00;101304.67;1681512;84;21046;-84
2021/06/29 06:27:02;;;;;;;11.70;7.15;;;;;;;25.51;73.76;101305.17;1676467;84;21043;-84
2021/06/29 06:29:29;;;;;;;14.78;6.85;;;;;;;25.56;74.41;101309.45;1690476;84;20927;-83
2021/06/29 06:31:56;;;;;;;21.25;7.78;;;;;;;;;;1682977;84;21104;-85
2021/06/29 06:34:26;;;;;;;13.38;6.40;;;;;;;25.67;73.78;101311.13;1662860;84;21139;-85
2021/06/29 06:36:53;;;;;;;9.85;6.20;;;;;;;25.72;73.29;101315.38;1662252;84;21173;-88
2021/06/29 06:39:22;;;;;;;11.05;6.40;;;;;;;25.78;73.18;101313.84;1661865;84;20949;-82
2021/06/29 06:41:49;;;;;;;8.30;5.97;;;;;;;25.82;72.99;101311.61;1668060;84;20986;-86
2021/06/29 06:44:21;;;;;;;10.23;6.50;;;;;;;25.84;73.13;101310.95;1690857;84;21113;-83
2021/06/29 06:46:50;;;;;;;16.95;7.33;;;;;;;25.84;71.98;101306.45;1691471;84;20944;-80
2021/06/29 06:49:18;;;;;;;33.65;7.78;;;;;;;25.88;72.26;101308.25;1690816;84;21839;-82
2021/06/29 06:51:45;;;;;;;24.95;7.53;;;;;;;25.94;72.56;101308.83;1672158;84;20978;-84
2021/06/29 06:54:12;;;;;;;15.30;6.45;;;;;;;26.01;70.59;101318.52;1691466;84;21027;-87
2021/06/29 06:56:39;;;;;;;11.57;6.47;;;;;;;26.04;71.28;101314.16;1684200;84;21007;-83
2021/06/29 06:59:06;;;;;;;11.40;6.47;;;;;;;26.12;69.51;101314.58;1685075;84;20982;-86
2021/06/29 07:01:33;;;;;;;14.40;6.65;;;;;;;26.17;69.89;101312.20;1685243;84;21141;-86
2021/06/29 07:04:00;;;;;;;15.53;6.65;;;;;;;26.22;69.73;101307.16;1656027;86;20980;-88
2021/06/29 07:06:27;;;;;;;15.70;7.15;;;;;;;26.22;68.62;101303.16;1661132;85;21048;-85
2021/06/29 07:08:54;;;;;;;10.40;5.95;;;;;;;26.22;68.87;101300.50;1652791;85;21084;-87
2021/06/29 07:11:23;;;;;;;7.53;5.87;;;;;;;26.25;68.42;101306.28;1658105;85;21049;-89
2021/06/29 07:13:51;;;;;;;9.30;6.30;;;;;;;26.28;68.65;101307.23;1668298;85;21157;-87
2021/06/29 07:16:20;;;;;;;7.00;6.40;;;;;;;26.35;69.02;101313.12;1665628;85;21147;-87
2021/06/29 07:18:47;;;;;;;10.28;6.33;;;;;;;26.36;68.45;101311.59;1669884;85;21000;-85
2021/06/29 07:21:14;;;;;;;8.45;5.95;;;;;;;26.38;67.74;101305.59;1666630;85;21863;-83
2021/06/29 07:23:41;;;;;;;8.33;6.08;;;;;;;26.40;67.80;101314.20;1650498;85;21062;-87
2021/06/29 07:26:10;;;;;;;12.68;5.50;;;;;;;26.43;67.22;101301.85;1678033;84;21140;-85
2021/06/29 07:28:37;;;;;;;9.18;6.15;;;;;;;26.48;67.28;101304.79;1678123;85;20959;-86
2021/06/29 07:31:04;;;;;;;11.57;6.08;;;;;;;26.51;66.98;101304.41;1678412;85;21008;-88
2021/06/29 07:33:31;;;;;;;9.48;6.42;;;;;;;26.54;66.98;101311.19;1678002;85;20976;-89
2021/06/29 07:36:15;;;;;;;9.13;5.87;;;;;;;26.55;66.44;101314.17;1650845;85;20948;-84
2021/06/29 07:38:44;;;;;;;7.83;6.03;;;;;;;26.53;67.48;101310.86;1616877;87;21177;-91
2021/06/29 07:41:14;;;;;;;7.15;6.45;;;;;;;26.52;67.20;101314.02;1673599;85;20964;-91
2021/06/29 07:43:46;;;;;;;10.65;6.40;;;;;;;26.51;67.04;101314.23;1668912;85;20970;-83
2021/06/29 07:46:12;;;;;;;10.08;7.10;;;;;;;26.55;68.60;101320.30;1647320;86;21044;-83
2021/06/29 07:48:55;;;;;;;7.20;6.50;;;;;;;26.63;67.93;101322.86;1649809;85;21050;-86
2021/06/29 07:51:22;;;;;;;7.45;6.67;;;;;;;26.68;67.84;101316.44;1670839;85;22103;-88
2021/06/29 07:53:51;;;;;;;7.80;6.47;;;;;;;26.76;67.85;101319.50;1624143;86;21110;-88
2021/06/29 07:56:20;;;;;;;12.10;6.65;;;;;;;26.81;67.44;101317.10;1621138;86;20976;-90
2021/06/29 07:58:47;;;;;;;8.03;6.62;;;;;;;26.79;66.28;101313.28;1624937;85;21024;-84
2021/06/29 08:01:17;;;;;;;9.33;6.42;;;;;;;26.76;66.89;101308.34;1651211;85;21036;-85
2021/06/29 08:03:45;;;;;;;7.45;6.25;;;;;;;26.83;66.85;101316.92;1650474;85;21097;-85
2021/06/29 08:06:21;;;;;;;10.25;6.25;;;;;;;26.90;66.75;101313.82;1644058;85;21076;-84
2021/06/29 08:08:43;;;;;;;10.13;6.55;;;;;;;26.99;67.44;101317.48;1657652;85;21055;-88
2021/06/29 08:11:10;;;;;;;7.87;5.92;;;;;;;27.04;66.48;101318.23;1657841;85;21053;-84
2021/06/29 08:13:38;;;;;;;6.72;6.03;;;;;;;27.08;67.07;101318.16;1658813;84;21118;-87
2021/06/29 08:16:06;;;;;;;11.25;7.00;;;;;;;27.14;65.26;101308.89;1678905;84;21174;-88
2021/06/29 08:18:35;;;;;;;7.33;6.25;;;;;;;27.16;66.16;101306.02;1682636;84;21146;-88
2021/06/29 08:21:06;;;;;;;10.20;6.35;;;;;;;27.23;65.56;101301.06;1663615;85;21032;-85
2021/06/29 08:23:32;;;;;;;8.30;6.05;;;;;;;27.30;64.26;101298.45;1657190;85;20992;-80
2021/06/29 08:25:59;;;;;;;8.00;6.17;;;;;;;27.35;64.99;101295.50;1679125;85;20963;-84
2021/06/29 08:28:27;;;;;;;6.85;6.25;;;;;;;27.42;64.64;101296.05;1674687;85;21227;-86
2021/06/29 08:30:54;;;;;;;7.30;6.08;;;;;;;27.44;63.14;101296.23;1649350;85;21127;-88
2021/06/29 08:33:59;;;;;;;7.30;5.75;;;;;;;27.43;63.49;101292.38;1644342;87;21569;-84
2021/06/29 08:36:30;;;;;;;6.53;5.85;;;;;;;27.47;61.46;101291.84;1617576;87;20982;-86
2021/06/29 08:38:58;;;;;;;8.55;5.80;;;;;;;27.40;61.85;101292.27;1659243;85;21052;-87
2021/06/29 08:41:29;;;;;;;5.85;5.30;;;;;;;27.46;62.07;101287.52;1663161;85;21123;-86
2021/06/29 08:43:58;;;;;;;6.87;4.87;;;;;;;27.49;61.56;101285.78;1648612;85;20940;-82
2021/06/29 08:46:25;;;;;;;6.10;5.50;;;;;;;27.61;61.38;101287.38;1683156;85;21074;-87
2021/06/29 08:48:54;;;;;;;8.20;5.78;;;;;;;27.67;60.04;101283.92;1684116;84;21063;-87
2021/06/29 08:51:28;;;;;;;8.33;5.87;;;;;;;27.69;60.92;101276.05;1684406;85;21194;-88
2021/06/29 08:53:55;;;;;;;9.33;5.75;;;;;;;27.72;60.71;101276.99;1682736;84;21761;-86
2021/06/29 08:56:23;;;;;;;6.30;5.67;;;;;;;27.75;61.64;101275.77;1682618;84;20960;-86
2021/06/29 08:58:50;;;;;;;6.95;6.08;;;;;;;27.75;62.14;101273.92;1682999;85;21054;-83
2021/06/29 09:01:19;;;;;;;8.23;6.87;;;;;;;27.73;63.97;101271.95;1682831;84;20995;-86
2021/06/29 09:03:46;;;;;;;10.75;6.47;;;;;;;27.78;64.69;101275.38;1679221;84;20964;-86
2021/06/29 09:06:13;;;;;;;11.20;6.47;;;;;;;27.84;65.01;101277.23;1656993;85;23243;-86
2021/06/29 09:08:43;;;;;;;6.87;6.17;;;;;;;27.93;65.31;101278.70;1656557;85;21047;-83
2021/06/29 09:11:19;;;;;;;7.55;6.62;;;;;;;28.01;65.65;101266.55;1684317;84;21083;-91
2021/06/29 09:14:05;;;;;;;7.37;6.67;;;;;;;28.09;66.90;101266.38;1683661;85;21062;-83
2021/06/29 09:16:32;;;;;;;7.22;6.53;;;;;;;28.23;67.45;101271.25;1682618;84;20943;-87
2021/06/29 09:19:00;;;;;;;9.40;6.30;;;;;;;28.25;65.50;101271.35;1657174;85;21124;-82
2021/06/29 09:21:36;;;;;;;8.15;6.35;;;;;;;28.31;65.37;101263.87;1620033;86;21105;-85
2021/06/29 09:24:03;;;;;;;10.20;6.67;;;;;;;28.35;63.69;101269.12;1640155;84;20955;-80
2021/06/29 09:26:30;;;;;;;8.35;7.12;;;;;;;28.31;62.84;101271.88;1621381;87;21050;-82
2021/06/29 09:29:00;;;;;;;10.48;6.10;;;;;;;28.24;63.25;101276.38;1640533;85;20967;-89
2021/06/29 09:31:31;;;;;;;;;;;;;;;28.23;64.30;101269.41;1643173;86;21108;-84
2021/06/29 09:34:10;;;;;;;7.15;5.78;;;;;;;28.26;65.46;101265.00;1640255;87;20450;-81
2021/06/29 09:36:37;;;;;;;6.28;5.45;;;;;;;28.31;62.02;101269.20;1639508;86;21110;-86
2021/06/29 09:39:10;;;;;;;7.25;6.53;;;;;;;28.30;58.01;101268.09;1632588;87;21037;-85
2021/06/29 09:41:42;;;;;;;10.28;6.67;;;;;;;28.31;60.86;101264.37;1612085;86;21309;-86
2021/06/29 09:44:18;;;;;;;9.43;6.70;;;;;;;28.30;60.27;101260.87;1656836;85;21178;-84
2021/06/29 09:46:44;;;;;;;5.97;5.37;;;;;;;28.35;60.72;101258.44;1630499;86;20973;-82
2021/06/29 09:49:14;;;;;;;9.20;5.78;;;;;;;28.40;57.69;101261.02;1657139;86;21008;-86
2021/06/29 09:51:47;;;;;;;8.85;6.22;;;;;;;28.32;59.39;101254.02;1657244;86;21695;-80
2021/06/29 09:54:17;;;;;;;5.97;5.37;;;;;;;28.37;58.96;101256.38;1666825;85;21031;-84
2021/06/29 09:56:48;;;;;;;6.12;5.47;;;;;;;28.50;56.95;101249.41;1684702;84;21168;-88
2021/06/29 09:59:18;;;;;;;11.55;5.85;;;;;;;28.55;56.42;101260.31;1684475;85;20963;-83
2021/06/29 10:01:45;;;;;;;6.65;4.65;;;;;;;28.56;55.55;101257.42;1639655;85;20987;-86
2021/06/29 10:04:17;;;;;;;6.30;5.60;;;;;;;28.79;53.24;101255.22;1656097;86;38055;-80
2021/06/29 10:06:48;;;;;;;7.92;4.83;;;;;;;29.12;49.67;101251.19;1656732;86;21036;-87
2021/06/29 10:09:16;;;;;;;7.08;5.15;;;;;;;29.28;50.39;101252.62;1656447;86;21174;-89
2021/06/29 10:11:52;;;;;;;13.05;5.97;;;;;;;29.60;49.59;101256.23;1658629;85;20944;-87
2021/06/29 10:14:16;;;;;;;6.03;5.33;;;;;;;29.95;48.50;101257.56;1683984;85;21015;-87
2021/06/29 10:16:51;;;;;;;7.28;5.40;;;;;;;30.21;48.26;101254.75;1667222;84;20908;-82
2021/06/29 10:21:56;;;;;;;8.90;4.73;;;;;;;30.16;48.23;101255.06;1662446;85;21190;-86
2021/06/29 10:24:26;;;;;;;5.53;4.45;;;;;;;30.20;44.64;101250.41;1671888;85;20904;-87
2021/06/29 10:26:56;;;;;;;7.90;4.80;;;;;;;30.26;44.02;101250.06;1646492;85;20991;-83
2021/06/29 10:29:24;;;;;;;4.85;4.33;;;;;;;30.44;45.04;101243.50;1619704;87;21040;-86
2021/06/29 10:31:54;;;;;;;24.32;6.75;;;;;;;30.61;45.03;101247.27;1663407;85;20962;-84
2021/06/29 10:34:21;;;;;;;6.28;4.92;;;;;;;30.68;45.56;101244.02;1632915;85;21197;-86
2021/06/29 10:36:50;;;;;;;6.87;4.83;;;;;;;30.62;45.23;101238.20;1673791;85;21010;-85
2021/06/29 10:39:21;;;;;;;6.28;4.55;;;;;;;30.57;45.43;101233.20;1682967;85;20959;-82
2021/06/29 10:41:52;;;;;;;7.08;4.90;;;;;;;30.46;45.89;101237.91;1683671;85;21023;-88
2021/06/29 10:44:21;;;;;;;7.05;4.92;;;;;;;30.24;46.01;101227.53;1683399;84;21015;-83
2021/06/29 10:46:53;;;;;;;6.33;4.65;;;;;;;30.14;46.12;101229.03;1682997;85;21120;-85
2021/06/29 10:49:31;;;;;;;7.90;5.00;;;;;;;30.09;46.28;101232.34;1683163;85;20980;-84
2021/06/29 10:52:04;;;;;;;5.35;4.83;;;;;;;30.13;48.05;101235.42;1683814;84;20988;-79
2021/06/29 10:54:52;;;;;;;6.05;5.20;;;;;;;30.23;47.65;101233.92;1684071;85;21020;-82
2021/06/29 10:57:45;;;;;;;5.87;5.37;;;;;;;30.26;47.30;101238.02;1684880;85;20940;-82
2021/06/29 11:00:28;;;;;;;7.97;4.60;;;;;;;30.12;48.62;101235.96;1672392;85;21605;-88
2021/06/29 11:03:05;;;;;;;6.60;5.30;;;;;;;30.10;47.79;101231.84;1647226;85;21015;-88
2021/06/29 11:05:42;;;;;;;6.15;5.60;;;;;;;30.05;47.47;101230.33;1651841;85;20931;-86
2021/06/29 11:08:19;;;;;;;7.10;5.17;;;;;;;29.95;48.49;101220.61;1613015;87;21572;-87
2021/06/29 11:10:49;;;;;;;11.57;6.42;;;;;;;29.86;49.84;101224.06;1643737;87;21237;-84
2021/06/29 11:13:42;;;;;;;8.45;6.72;;;;;;;29.85;50.65;101214.38;1645413;87;20939;-82
2021/06/29 11:16:11;;;;;;;7.08;6.22;;;;;;;29.84;50.99;101217.56;1665938;85;21636;-82
2021/06/29 11:18:46;;;;;;;6.67;5.97;;;;;;;29.98;51.83;101218.33;1678226;84;21583;-84
2021/06/29 11:21:26;;;;;;;7.03;6.30;;;;;;;30.12;50.68;101216.40;1686931;84;21009;-87
2021/06/29 11:23:54;;;;;;;6.92;6.33;;;;;;;30.02;50.90;101208.84;1673083;84;21059;-83
2021/06/29 11:26:24;;;;;;;7.72;6.17;;;;;;;30.10;50.98;101208.56;1674125;83;21585;-82
2021/06/29 11:28:52;;;;;;;6.92;6.20;;;;;;;30.21;49.77;101212.42;1644616;86;21031;-80
2021/06/29 11:31:29;;;;;;;6.37;5.40;;;;;;;30.32;49.71;101207.69;1674988;84;20991;-85
2021/06/29 11:34:03;;;;;;;9.98;5.87;;;;;;;30.49;49.38;101200.80;1641565;86;21501;-83